sensor_id;sensor_type;location;lat;lon;timestamp;temperature;humidity
63537;DHT22;49686;51.880;5.632;2023-07-31T00:01:27;14.40;99.90
63537;DHT22;49686;51.880;5.632;2023-07-31T00:03:54;14.40;99.90
63537;DHT22;49686;51.880;5.632;2023-07-31T00:06:21;14.50;99.90
63537;DHT22;49686;51.880;5.632;2023-07-31T00:08:47;14.50;99.90
63537;DHT22;49686;51.880;5.632;2023-07-31T00:11:14;14.50;99.90
63537;DHT22;49686;51.880;5.632;2023-07-31T00:13:42;14.60;99.90
63537;DHT22;49686;51.880;5.632;2023-07-31T00:16:09;14.60;99.90
63537;DHT22;49686;51.880;5.632;2023-07-31T00:18:36;14.70;99.90
63537;DHT22;49686;51.880;5.632;2023-07-31T00:21:03;14.80;99.90
63537;DHT22;49686;51.880;5.632;2023-07-31T00:23:30;14.90;99.90
63537;DHT22;49686;51.880;5.632;2023-07-31T00:25:57;15.00;99.90
63537;DHT22;49686;51.880;5.632;2023-07-31T00:28:23;15.20;99.90
63537;DHT22;49686;51.880;5.632;2023-07-31T00:30:52;15.40;99.90
63537;DHT22;49686;51.880;5.632;2023-07-31T00:33:18;15.50;99.90
63537;DHT22;49686;51.880;5.632;2023-07-31T00:35:45;15.60;99.90
63537;DHT22;49686;51.880;5.632;2023-07-31T00:38:12;15.70;99.90
63537;DHT22;49686;51.880;5.632;2023-07-31T00:40:39;15.70;99.90
63537;DHT22;49686;51.880;5.632;2023-07-31T00:43:06;15.70;99.90
63537;DHT22;49686;51.880;5.632;2023-07-31T00:45:33;15.80;99.90
63537;DHT22;49686;51.880;5.632;2023-07-31T00:48:01;15.80;99.90
63537;DHT22;49686;51.880;5.632;2023-07-31T00:50:29;15.80;99.90
63537;DHT22;49686;51.880;5.632;2023-07-31T00:52:56;15.90;99.90
63537;DHT22;49686;51.880;5.632;2023-07-31T00:55:23;15.90;99.90
63537;DHT22;49686;51.880;5.632;2023-07-31T00:57:51;15.80;99.90
63537;DHT22;49686;51.880;5.632;2023-07-31T01:00:19;15.90;99.90
63537;DHT22;49686;51.880;5.632;2023-07-31T01:02:46;15.90;99.90
63537;DHT22;49686;51.880;5.632;2023-07-31T01:05:14;15.90;99.90
63537;DHT22;49686;51.880;5.632;2023-07-31T01:07:47;15.90;99.90
63537;DHT22;49686;51.880;5.632;2023-07-31T01:10:18;15.90;99.90
63537;DHT22;49686;51.880;5.632;2023-07-31T01:12:48;15.90;99.90
63537;DHT22;49686;51.880;5.632;2023-07-31T01:15:15;16.00;99.90
63537;DHT22;49686;51.880;5.632;2023-07-31T01:17:42;15.90;99.90
63537;DHT22;49686;51.880;5.632;2023-07-31T01:20:12;15.90;99.90
63537;DHT22;49686;51.880;5.632;2023-07-31T01:23:08;15.90;99.90
63537;DHT22;49686;51.880;5.632;2023-07-31T01:25:54;16.00;99.90
63537;DHT22;49686;51.880;5.632;2023-07-31T01:28:27;16.00;99.90
63537;DHT22;49686;51.880;5.632;2023-07-31T01:30:55;16.00;99.90
63537;DHT22;49686;51.880;5.632;2023-07-31T01:33:25;16.00;99.90
63537;DHT22;49686;51.880;5.632;2023-07-31T01:35:52;16.00;99.90
63537;DHT22;49686;51.880;5.632;2023-07-31T01:38:20;16.00;99.90
63537;DHT22;49686;51.880;5.632;2023-07-31T01:40:51;16.00;99.90
63537;DHT22;49686;51.880;5.632;2023-07-31T01:43:18;16.00;99.90
63537;DHT22;49686;51.880;5.632;2023-07-31T01:45:44;16.00;99.90
63537;DHT22;49686;51.880;5.632;2023-07-31T01:48:11;16.00;99.90
63537;DHT22;49686;51.880;5.632;2023-07-31T01:50:38;16.00;99.90
63537;DHT22;49686;51.880;5.632;2023-07-31T01:53:05;16.00;99.90
63537;DHT22;49686;51.880;5.632;2023-07-31T01:55:32;16.00;99.90
63537;DHT22;49686;51.880;5.632;2023-07-31T01:58:00;15.90;99.90
63537;DHT22;49686;51.880;5.632;2023-07-31T02:00:27;16.00;99.90
63537;DHT22;49686;51.880;5.632;2023-07-31T02:02:54;16.00;99.90
63537;DHT22;49686;51.880;5.632;2023-07-31T02:05:21;16.00;99.90
63537;DHT22;49686;51.880;5.632;2023-07-31T02:07:47;16.00;99.90
63537;DHT22;49686;51.880;5.632;2023-07-31T02:10:14;15.90;99.90
63537;DHT22;49686;51.880;5.632;2023-07-31T02:12:41;15.90;99.90
63537;DHT22;49686;51.880;5.632;2023-07-31T02:15:10;15.90;99.90
63537;DHT22;49686;51.880;5.632;2023-07-31T02:17:36;16.00;99.90
63537;DHT22;49686;51.880;5.632;2023-07-31T02:20:04;16.00;99.90
63537;DHT22;49686;51.880;5.632;2023-07-31T02:22:31;16.00;99.90
63537;DHT22;49686;51.880;5.632;2023-07-31T02:24:58;16.00;99.90
63537;DHT22;49686;51.880;5.632;2023-07-31T02:27:25;16.00;99.90
63537;DHT22;49686;51.880;5.632;2023-07-31T02:29:51;16.00;99.90
63537;DHT22;49686;51.880;5.632;2023-07-31T02:32:20;16.00;99.90
63537;DHT22;49686;51.880;5.632;2023-07-31T02:34:46;16.10;99.90
63537;DHT22;49686;51.880;5.632;2023-07-31T02:37:13;16.10;99.90
63537;DHT22;49686;51.880;5.632;2023-07-31T02:39:40;16.00;99.90
63537;DHT22;49686;51.880;5.632;2023-07-31T02:42:07;16.10;99.90
63537;DHT22;49686;51.880;5.632;2023-07-31T02:44:34;16.00;99.90
63537;DHT22;49686;51.880;5.632;2023-07-31T02:47:01;16.10;99.90
63537;DHT22;49686;51.880;5.632;2023-07-31T02:49:29;16.10;99.90
63537;DHT22;49686;51.880;5.632;2023-07-31T02:51:56;16.10;99.90
63537;DHT22;49686;51.880;5.632;2023-07-31T02:54:23;16.00;99.90
63537;DHT22;49686;51.880;5.632;2023-07-31T02:56:49;16.00;99.90
63537;DHT22;49686;51.880;5.632;2023-07-31T02:59:17;16.00;99.90
63537;DHT22;49686;51.880;5.632;2023-07-31T03:01:44;16.00;99.90
63537;DHT22;49686;51.880;5.632;2023-07-31T03:04:11;16.00;99.90
63537;DHT22;49686;51.880;5.632;2023-07-31T03:06:39;16.00;99.90
63537;DHT22;49686;51.880;5.632;2023-07-31T03:09:06;16.00;99.90
63537;DHT22;49686;51.880;5.632;2023-07-31T03:11:33;16.00;99.90
63537;DHT22;49686;51.880;5.632;2023-07-31T03:14:00;16.00;99.90
63537;DHT22;49686;51.880;5.632;2023-07-31T03:16:27;16.00;99.90
63537;DHT22;49686;51.880;5.632;2023-07-31T03:18:54;16.00;99.90
63537;DHT22;49686;51.880;5.632;2023-07-31T03:21:21;16.00;99.90
63537;DHT22;49686;51.880;5.632;2023-07-31T03:23:49;16.00;99.90
63537;DHT22;49686;51.880;5.632;2023-07-31T03:26:16;16.00;99.90
63537;DHT22;49686;51.880;5.632;2023-07-31T03:28:43;16.00;99.90
63537;DHT22;49686;51.880;5.632;2023-07-31T03:31:10;15.90;99.90
63537;DHT22;49686;51.880;5.632;2023-07-31T03:33:37;16.00;99.90
63537;DHT22;49686;51.880;5.632;2023-07-31T03:36:04;15.90;99.90
63537;DHT22;49686;51.880;5.632;2023-07-31T03:38:31;16.00;99.90
63537;DHT22;49686;51.880;5.632;2023-07-31T03:40:59;16.00;99.90
63537;DHT22;49686;51.880;5.632;2023-07-31T03:43:26;16.00;99.90
63537;DHT22;49686;51.880;5.632;2023-07-31T03:45:53;16.00;99.90
63537;DHT22;49686;51.880;5.632;2023-07-31T03:48:20;16.00;99.90
63537;DHT22;49686;51.880;5.632;2023-07-31T03:50:47;16.00;99.90
63537;DHT22;49686;51.880;5.632;2023-07-31T03:53:14;16.00;99.90
63537;DHT22;49686;51.880;5.632;2023-07-31T03:55:40;16.00;99.90
63537;DHT22;49686;51.880;5.632;2023-07-31T03:58:09;16.00;99.90
63537;DHT22;49686;51.880;5.632;2023-07-31T04:00:35;16.00;99.90
63537;DHT22;49686;51.880;5.632;2023-07-31T04:03:02;16.00;99.90
63537;DHT22;49686;51.880;5.632;2023-07-31T04:05:31;15.90;99.90
63537;DHT22;49686;51.880;5.632;2023-07-31T04:07:58;15.90;99.90
63537;DHT22;49686;51.880;5.632;2023-07-31T04:10:25;15.90;99.90
63537;DHT22;49686;51.880;5.632;2023-07-31T04:12:52;16.00;99.90
63537;DHT22;49686;51.880;5.632;2023-07-31T04:15:20;16.00;99.90
63537;DHT22;49686;51.880;5.632;2023-07-31T04:17:47;16.00;99.90
63537;DHT22;49686;51.880;5.632;2023-07-31T04:20:14;16.00;99.90
63537;DHT22;49686;51.880;5.632;2023-07-31T04:22:41;16.00;99.90
63537;DHT22;49686;51.880;5.632;2023-07-31T04:25:08;16.00;99.90
63537;DHT22;49686;51.880;5.632;2023-07-31T04:27:35;16.00;99.90
63537;DHT22;49686;51.880;5.632;2023-07-31T04:30:01;16.00;99.90
63537;DHT22;49686;51.880;5.632;2023-07-31T04:32:30;16.00;99.90
63537;DHT22;49686;51.880;5.632;2023-07-31T04:34:56;16.10;99.90
63537;DHT22;49686;51.880;5.632;2023-07-31T04:37:23;16.10;99.90
63537;DHT22;49686;51.880;5.632;2023-07-31T04:39:50;16.00;99.90
63537;DHT22;49686;51.880;5.632;2023-07-31T04:42:17;16.10;99.90
63537;DHT22;49686;51.880;5.632;2023-07-31T04:44:44;16.00;99.90
63537;DHT22;49686;51.880;5.632;2023-07-31T04:47:11;16.00;99.90
63537;DHT22;49686;51.880;5.632;2023-07-31T04:49:39;16.00;99.90
63537;DHT22;49686;51.880;5.632;2023-07-31T04:52:06;16.00;99.90
63537;DHT22;49686;51.880;5.632;2023-07-31T04:54:33;16.00;99.90
63537;DHT22;49686;51.880;5.632;2023-07-31T04:57:00;16.00;99.90
63537;DHT22;49686;51.880;5.632;2023-07-31T04:59:28;16.00;99.90
63537;DHT22;49686;51.880;5.632;2023-07-31T05:01:55;16.00;99.90
63537;DHT22;49686;51.880;5.632;2023-07-31T05:04:22;16.00;99.90
63537;DHT22;49686;51.880;5.632;2023-07-31T05:06:50;16.00;99.90
63537;DHT22;49686;51.880;5.632;2023-07-31T05:09:17;15.90;99.90
63537;DHT22;49686;51.880;5.632;2023-07-31T05:11:44;15.90;99.90
63537;DHT22;49686;51.880;5.632;2023-07-31T05:14:10;15.80;99.90
63537;DHT22;49686;51.880;5.632;2023-07-31T05:16:37;15.70;99.90
63537;DHT22;49686;51.880;5.632;2023-07-31T05:19:05;15.70;99.90
63537;DHT22;49686;51.880;5.632;2023-07-31T05:21:31;15.60;99.90
63537;DHT22;49686;51.880;5.632;2023-07-31T05:23:59;15.60;99.90
63537;DHT22;49686;51.880;5.632;2023-07-31T05:26:26;15.50;99.90
63537;DHT22;49686;51.880;5.632;2023-07-31T05:28:53;15.50;99.90
63537;DHT22;49686;51.880;5.632;2023-07-31T05:31:20;15.50;99.90
63537;DHT22;49686;51.880;5.632;2023-07-31T05:33:47;15.50;99.90
63537;DHT22;49686;51.880;5.632;2023-07-31T05:36:14;15.50;99.90
63537;DHT22;49686;51.880;5.632;2023-07-31T05:38:41;15.40;99.90
63537;DHT22;49686;51.880;5.632;2023-07-31T05:41:11;15.40;99.90
63537;DHT22;49686;51.880;5.632;2023-07-31T05:43:37;15.40;99.90
63537;DHT22;49686;51.880;5.632;2023-07-31T05:46:04;15.30;99.90
63537;DHT22;49686;51.880;5.632;2023-07-31T05:48:32;15.40;99.90
63537;DHT22;49686;51.880;5.632;2023-07-31T05:50:59;15.30;99.90
63537;DHT22;49686;51.880;5.632;2023-07-31T05:53:26;15.40;99.90
63537;DHT22;49686;51.880;5.632;2023-07-31T05:55:53;15.40;99.90
63537;DHT22;49686;51.880;5.632;2023-07-31T05:58:21;15.40;99.90
63537;DHT22;49686;51.880;5.632;2023-07-31T06:00:48;15.40;99.90
63537;DHT22;49686;51.880;5.632;2023-07-31T06:03:15;15.40;99.90
63537;DHT22;49686;51.880;5.632;2023-07-31T06:05:42;15.50;99.90
63537;DHT22;49686;51.880;5.632;2023-07-31T06:08:09;15.50;99.90
63537;DHT22;49686;51.880;5.632;2023-07-31T06:10:35;15.50;99.90
63537;DHT22;49686;51.880;5.632;2023-07-31T06:13:02;15.50;99.90
63537;DHT22;49686;51.880;5.632;2023-07-31T06:15:30;15.50;99.90
63537;DHT22;49686;51.880;5.632;2023-07-31T06:17:58;15.60;99.90
63537;DHT22;49686;51.880;5.632;2023-07-31T06:20:25;15.60;99.90
63537;DHT22;49686;51.880;5.632;2023-07-31T06:22:51;15.60;99.90
63537;DHT22;49686;51.880;5.632;2023-07-31T06:25:18;15.70;99.90
63537;DHT22;49686;51.880;5.632;2023-07-31T06:27:45;15.70;99.90
63537;DHT22;49686;51.880;5.632;2023-07-31T06:30:12;15.70;99.90
63537;DHT22;49686;51.880;5.632;2023-07-31T06:32:40;15.70;99.90
63537;DHT22;49686;51.880;5.632;2023-07-31T06:35:07;15.80;99.90
63537;DHT22;49686;51.880;5.632;2023-07-31T06:37:34;15.80;99.90
63537;DHT22;49686;51.880;5.632;2023-07-31T06:40:04;15.90;99.90
63537;DHT22;49686;51.880;5.632;2023-07-31T06:42:31;15.90;99.90
63537;DHT22;49686;51.880;5.632;2023-07-31T06:44:58;15.90;99.90
63537;DHT22;49686;51.880;5.632;2023-07-31T06:47:25;15.90;99.90
63537;DHT22;49686;51.880;5.632;2023-07-31T06:49:55;15.90;99.90
63537;DHT22;49686;51.880;5.632;2023-07-31T06:52:22;15.90;99.90
63537;DHT22;49686;51.880;5.632;2023-07-31T06:55:01;15.90;99.90
63537;DHT22;49686;51.880;5.632;2023-07-31T06:57:28;15.90;99.90
63537;DHT22;49686;51.880;5.632;2023-07-31T06:59:57;15.90;99.90
63537;DHT22;49686;51.880;5.632;2023-07-31T07:02:24;16.00;99.90
63537;DHT22;49686;51.880;5.632;2023-07-31T07:04:50;16.00;99.90
63537;DHT22;49686;51.880;5.632;2023-07-31T07:07:19;16.00;99.90
63537;DHT22;49686;51.880;5.632;2023-07-31T07:09:46;16.00;99.90
63537;DHT22;49686;51.880;5.632;2023-07-31T07:12:13;16.00;99.90
63537;DHT22;49686;51.880;5.632;2023-07-31T07:14:39;16.10;99.90
63537;DHT22;49686;51.880;5.632;2023-07-31T07:17:06;16.00;99.90
63537;DHT22;49686;51.880;5.632;2023-07-31T07:19:33;16.10;99.90
63537;DHT22;49686;51.880;5.632;2023-07-31T07:22:00;16.10;99.90
63537;DHT22;49686;51.880;5.632;2023-07-31T07:24:29;16.10;99.90
63537;DHT22;49686;51.880;5.632;2023-07-31T07:26:55;16.10;99.90
63537;DHT22;49686;51.880;5.632;2023-07-31T07:29:23;16.10;99.90
63537;DHT22;49686;51.880;5.632;2023-07-31T07:31:49;16.10;99.90
63537;DHT22;49686;51.880;5.632;2023-07-31T07:34:16;16.10;99.90
63537;DHT22;49686;51.880;5.632;2023-07-31T07:36:43;16.10;99.90
63537;DHT22;49686;51.880;5.632;2023-07-31T07:39:11;16.10;99.90
63537;DHT22;49686;51.880;5.632;2023-07-31T07:41:39;16.20;99.90
63537;DHT22;49686;51.880;5.632;2023-07-31T07:44:07;16.20;99.90
63537;DHT22;49686;51.880;5.632;2023-07-31T07:46:34;16.20;99.90
63537;DHT22;49686;51.880;5.632;2023-07-31T07:49:01;16.10;99.90
63537;DHT22;49686;51.880;5.632;2023-07-31T07:51:28;16.10;99.90
63537;DHT22;49686;51.880;5.632;2023-07-31T07:53:55;16.20;99.90
63537;DHT22;49686;51.880;5.632;2023-07-31T07:56:22;16.20;99.90
63537;DHT22;49686;51.880;5.632;2023-07-31T07:58:54;16.30;99.90
63537;DHT22;49686;51.880;5.632;2023-07-31T08:01:23;16.30;99.90
63537;DHT22;49686;51.880;5.632;2023-07-31T08:03:51;16.40;99.90
63537;DHT22;49686;51.880;5.632;2023-07-31T08:06:18;16.40;99.90
63537;DHT22;49686;51.880;5.632;2023-07-31T08:08:45;16.40;99.90
63537;DHT22;49686;51.880;5.632;2023-07-31T08:11:12;16.40;99.90
63537;DHT22;49686;51.880;5.632;2023-07-31T08:13:38;16.40;99.90
63537;DHT22;49686;51.880;5.632;2023-07-31T08:16:07;16.40;99.90
63537;DHT22;49686;51.880;5.632;2023-07-31T08:18:33;16.40;99.90
63537;DHT22;49686;51.880;5.632;2023-07-31T08:21:02;16.50;99.90
63537;DHT22;49686;51.880;5.632;2023-07-31T08:23:28;16.40;99.90
63537;DHT22;49686;51.880;5.632;2023-07-31T08:25:55;16.30;99.90
63537;DHT22;49686;51.880;5.632;2023-07-31T08:28:22;16.30;99.90
63537;DHT22;49686;51.880;5.632;2023-07-31T08:30:49;16.40;99.90
63537;DHT22;49686;51.880;5.632;2023-07-31T08:33:17;16.40;99.90
63537;DHT22;49686;51.880;5.632;2023-07-31T08:35:44;16.40;99.90
63537;DHT22;49686;51.880;5.632;2023-07-31T08:38:12;16.50;99.90
63537;DHT22;49686;51.880;5.632;2023-07-31T08:40:39;16.50;99.90
63537;DHT22;49686;51.880;5.632;2023-07-31T08:43:07;16.50;99.90
63537;DHT22;49686;51.880;5.632;2023-07-31T08:45:34;16.60;99.90
63537;DHT22;49686;51.880;5.632;2023-07-31T08:48:01;16.60;99.90
63537;DHT22;49686;51.880;5.632;2023-07-31T08:50:29;16.60;99.90
63537;DHT22;49686;51.880;5.632;2023-07-31T08:52:56;16.60;99.90
63537;DHT22;49686;51.880;5.632;2023-07-31T08:55:24;16.50;99.90
63537;DHT22;49686;51.880;5.632;2023-07-31T08:57:53;16.50;99.90
63537;DHT22;49686;51.880;5.632;2023-07-31T09:00:20;16.50;99.90
63537;DHT22;49686;51.880;5.632;2023-07-31T09:02:51;16.50;99.90
63537;DHT22;49686;51.880;5.632;2023-07-31T09:05:19;16.50;99.90
63537;DHT22;49686;51.880;5.632;2023-07-31T09:07:49;16.40;99.90
63537;DHT22;49686;51.880;5.632;2023-07-31T09:10:16;16.50;99.90
63537;DHT22;49686;51.880;5.632;2023-07-31T09:12:43;16.60;99.90
63537;DHT22;49686;51.880;5.632;2023-07-31T09:15:11;16.50;99.90
63537;DHT22;49686;51.880;5.632;2023-07-31T09:17:59;16.60;99.90
63537;DHT22;49686;51.880;5.632;2023-07-31T09:20:26;16.50;99.90
63537;DHT22;49686;51.880;5.632;2023-07-31T09:22:55;16.60;99.90
63537;DHT22;49686;51.880;5.632;2023-07-31T09:25:23;16.60;99.90
63537;DHT22;49686;51.880;5.632;2023-07-31T09:27:51;16.60;99.90
63537;DHT22;49686;51.880;5.632;2023-07-31T09:30:18;16.70;99.90
63537;DHT22;49686;51.880;5.632;2023-07-31T09:32:46;16.70;99.90
63537;DHT22;49686;51.880;5.632;2023-07-31T09:35:19;16.80;99.90
63537;DHT22;49686;51.880;5.632;2023-07-31T09:37:51;16.80;99.90
63537;DHT22;49686;51.880;5.632;2023-07-31T09:40:33;16.90;99.90
63537;DHT22;49686;51.880;5.632;2023-07-31T09:43:03;17.00;99.90
63537;DHT22;49686;51.880;5.632;2023-07-31T09:45:39;17.10;99.90
63537;DHT22;49686;51.880;5.632;2023-07-31T09:48:09;17.30;99.90
63537;DHT22;49686;51.880;5.632;2023-07-31T09:50:37;17.30;99.90
63537;DHT22;49686;51.880;5.632;2023-07-31T09:53:04;17.40;99.90
63537;DHT22;49686;51.880;5.632;2023-07-31T09:55:35;17.30;99.90
63537;DHT22;49686;51.880;5.632;2023-07-31T09:58:05;17.30;99.90
63537;DHT22;49686;51.880;5.632;2023-07-31T10:00:33;17.30;99.90
63537;DHT22;49686;51.880;5.632;2023-07-31T10:03:01;17.40;99.90
63537;DHT22;49686;51.880;5.632;2023-07-31T10:05:31;17.50;99.90
63537;DHT22;49686;51.880;5.632;2023-07-31T10:08:00;17.60;99.90
63537;DHT22;49686;51.880;5.632;2023-07-31T10:10:27;17.80;99.90
63537;DHT22;49686;51.880;5.632;2023-07-31T10:12:56;17.80;99.90
63537;DHT22;49686;51.880;5.632;2023-07-31T10:15:23;17.90;99.90
63537;DHT22;49686;51.880;5.632;2023-07-31T10:17:51;17.80;99.90
63537;DHT22;49686;51.880;5.632;2023-07-31T10:20:19;17.90;99.90
63537;DHT22;49686;51.880;5.632;2023-07-31T10:22:46;18.00;99.90
63537;DHT22;49686;51.880;5.632;2023-07-31T10:25:15;18.00;99.90
63537;DHT22;49686;51.880;5.632;2023-07-31T10:27:42;18.10;99.90
63537;DHT22;49686;51.880;5.632;2023-07-31T10:30:13;18.10;99.90
63537;DHT22;49686;51.880;5.632;2023-07-31T10:32:45;18.20;99.90
63537;DHT22;49686;51.880;5.632;2023-07-31T10:35:14;18.20;99.90
63537;DHT22;49686;51.880;5.632;2023-07-31T10:37:42;18.20;99.90
63537;DHT22;49686;51.880;5.632;2023-07-31T10:40:12;18.20;99.90
63537;DHT22;49686;51.880;5.632;2023-07-31T10:42:45;18.30;99.90
63537;DHT22;49686;51.880;5.632;2023-07-31T10:45:23;18.20;99.90
63537;DHT22;49686;51.880;5.632;2023-07-31T10:47:58;18.10;99.90
63537;DHT22;49686;51.880;5.632;2023-07-31T10:50:26;18.10;99.90
63537;DHT22;49686;51.880;5.632;2023-07-31T10:52:54;18.10;99.90
63537;DHT22;49686;51.880;5.632;2023-07-31T10:55:30;18.00;99.90
63537;DHT22;49686;51.880;5.632;2023-07-31T10:58:05;17.90;99.90
63537;DHT22;49686;51.880;5.632;2023-07-31T11:00:34;18.00;99.90
63537;DHT22;49686;51.880;5.632;2023-07-31T11:03:04;17.90;99.90
63537;DHT22;49686;51.880;5.632;2023-07-31T11:05:42;18.00;99.90
63537;DHT22;49686;51.880;5.632;2023-07-31T11:08:13;18.00;99.90
63537;DHT22;49686;51.880;5.632;2023-07-31T11:10:40;18.00;99.90
63537;DHT22;49686;51.880;5.632;2023-07-31T11:13:07;18.00;99.90
63537;DHT22;49686;51.880;5.632;2023-07-31T11:15:35;18.10;99.90
63537;DHT22;49686;51.880;5.632;2023-07-31T11:18:03;18.20;99.90
63537;DHT22;49686;51.880;5.632;2023-07-31T11:20:30;18.30;99.90
63537;DHT22;49686;51.880;5.632;2023-07-31T11:22:59;18.30;99.90
63537;DHT22;49686;51.880;5.632;2023-07-31T11:25:29;18.40;99.90
63537;DHT22;49686;51.880;5.632;2023-07-31T11:27:56;18.30;99.90
63537;DHT22;49686;51.880;5.632;2023-07-31T11:30:23;18.40;99.90
63537;DHT22;49686;51.880;5.632;2023-07-31T11:32:51;18.30;99.90
63537;DHT22;49686;51.880;5.632;2023-07-31T11:35:18;18.40;99.90
63537;DHT22;49686;51.880;5.632;2023-07-31T11:37:45;18.40;99.90
63537;DHT22;49686;51.880;5.632;2023-07-31T11:40:12;18.30;99.90
63537;DHT22;49686;51.880;5.632;2023-07-31T11:42:39;18.30;99.90
63537;DHT22;49686;51.880;5.632;2023-07-31T11:45:08;18.40;99.90
63537;DHT22;49686;51.880;5.632;2023-07-31T11:47:35;18.50;99.90
63537;DHT22;49686;51.880;5.632;2023-07-31T11:50:05;18.60;99.90
63537;DHT22;49686;51.880;5.632;2023-07-31T11:52:37;18.60;99.90
63537;DHT22;49686;51.880;5.632;2023-07-31T11:55:05;18.70;99.90
63537;DHT22;49686;51.880;5.632;2023-07-31T11:57:34;18.70;99.90
63537;DHT22;49686;51.880;5.632;2023-07-31T12:00:01;18.80;99.90
63537;DHT22;49686;51.880;5.632;2023-07-31T12:02:29;18.90;99.90
63537;DHT22;49686;51.880;5.632;2023-07-31T12:04:56;18.70;99.90
63537;DHT22;49686;51.880;5.632;2023-07-31T12:07:25;18.70;99.90
63537;DHT22;49686;51.880;5.632;2023-07-31T12:09:52;18.70;99.90
63537;DHT22;49686;51.880;5.632;2023-07-31T12:12:20;18.60;99.90
63537;DHT22;49686;51.880;5.632;2023-07-31T12:14:48;18.60;99.90
63537;DHT22;49686;51.880;5.632;2023-07-31T12:17:15;18.50;99.90
63537;DHT22;49686;51.880;5.632;2023-07-31T12:19:42;18.40;99.90
63537;DHT22;49686;51.880;5.632;2023-07-31T12:22:12;18.30;99.90
63537;DHT22;49686;51.880;5.632;2023-07-31T12:24:42;18.10;99.90
63537;DHT22;49686;51.880;5.632;2023-07-31T12:27:10;17.90;99.90
63537;DHT22;49686;51.880;5.632;2023-07-31T12:29:38;17.80;99.90
63537;DHT22;49686;51.880;5.632;2023-07-31T12:32:20;17.80;99.90
63537;DHT22;49686;51.880;5.632;2023-07-31T12:34:48;17.70;99.90
63537;DHT22;49686;51.880;5.632;2023-07-31T12:37:18;17.70;99.90
63537;DHT22;49686;51.880;5.632;2023-07-31T12:39:46;17.70;99.90
63537;DHT22;49686;51.880;5.632;2023-07-31T12:42:13;17.70;99.90
63537;DHT22;49686;51.880;5.632;2023-07-31T12:44:40;17.70;99.90
63537;DHT22;49686;51.880;5.632;2023-07-31T12:47:07;17.80;99.90
63537;DHT22;49686;51.880;5.632;2023-07-31T12:49:34;17.80;99.90
63537;DHT22;49686;51.880;5.632;2023-07-31T12:52:01;17.80;99.90
63537;DHT22;49686;51.880;5.632;2023-07-31T12:54:27;17.90;99.90
63537;DHT22;49686;51.880;5.632;2023-07-31T12:56:56;18.10;99.90
63537;DHT22;49686;51.880;5.632;2023-07-31T12:59:24;18.20;99.90
63537;DHT22;49686;51.880;5.632;2023-07-31T13:01:51;18.10;99.90
63537;DHT22;49686;51.880;5.632;2023-07-31T13:04:18;18.20;99.90
63537;DHT22;49686;51.880;5.632;2023-07-31T13:06:45;18.00;99.90
63537;DHT22;49686;51.880;5.632;2023-07-31T13:09:12;18.00;99.90
63537;DHT22;49686;51.880;5.632;2023-07-31T13:11:39;18.00;99.90
63537;DHT22;49686;51.880;5.632;2023-07-31T13:14:07;18.10;99.90
63537;DHT22;49686;51.880;5.632;2023-07-31T13:16:34;18.00;99.90
63537;DHT22;49686;51.880;5.632;2023-07-31T13:19:01;18.00;99.90
63537;DHT22;49686;51.880;5.632;2023-07-31T13:21:27;18.00;99.90
63537;DHT22;49686;51.880;5.632;2023-07-31T13:23:54;18.00;99.90
63537;DHT22;49686;51.880;5.632;2023-07-31T13:26:21;18.00;99.90
63537;DHT22;49686;51.880;5.632;2023-07-31T13:28:48;18.10;99.90
63537;DHT22;49686;51.880;5.632;2023-07-31T13:31:16;18.20;99.90
63537;DHT22;49686;51.880;5.632;2023-07-31T13:33:43;18.10;99.90
63537;DHT22;49686;51.880;5.632;2023-07-31T13:36:10;18.10;99.90
63537;DHT22;49686;51.880;5.632;2023-07-31T13:38:37;18.20;99.90
63537;DHT22;49686;51.880;5.632;2023-07-31T13:41:04;18.30;99.90
63537;DHT22;49686;51.880;5.632;2023-07-31T13:43:31;18.30;99.90
63537;DHT22;49686;51.880;5.632;2023-07-31T13:45:59;18.50;99.90
63537;DHT22;49686;51.880;5.632;2023-07-31T13:48:27;18.40;99.90
63537;DHT22;49686;51.880;5.632;2023-07-31T13:50:56;18.50;99.90
63537;DHT22;49686;51.880;5.632;2023-07-31T13:53:23;18.50;99.90
63537;DHT22;49686;51.880;5.632;2023-07-31T13:55:50;18.40;99.90
63537;DHT22;49686;51.880;5.632;2023-07-31T13:58:17;18.40;99.90
63537;DHT22;49686;51.880;5.632;2023-07-31T14:00:44;18.30;99.90
63537;DHT22;49686;51.880;5.632;2023-07-31T14:03:11;18.20;99.90
63537;DHT22;49686;51.880;5.632;2023-07-31T14:05:39;18.20;99.90
63537;DHT22;49686;51.880;5.632;2023-07-31T14:08:06;18.30;99.90
63537;DHT22;49686;51.880;5.632;2023-07-31T14:10:33;18.30;99.90
63537;DHT22;49686;51.880;5.632;2023-07-31T14:13:00;18.30;99.90
63537;DHT22;49686;51.880;5.632;2023-07-31T14:15:26;18.40;99.90
63537;DHT22;49686;51.880;5.632;2023-07-31T14:17:53;18.40;99.90
63537;DHT22;49686;51.880;5.632;2023-07-31T14:20:22;18.50;99.90
63537;DHT22;49686;51.880;5.632;2023-07-31T14:22:50;18.30;99.90
63537;DHT22;49686;51.880;5.632;2023-07-31T14:25:17;18.10;99.90
63537;DHT22;49686;51.880;5.632;2023-07-31T14:27:44;18.00;99.90
63537;DHT22;49686;51.880;5.632;2023-07-31T14:30:11;18.00;99.90
63537;DHT22;49686;51.880;5.632;2023-07-31T14:32:38;18.00;99.90
63537;DHT22;49686;51.880;5.632;2023-07-31T14:35:05;18.00;99.90
63537;DHT22;49686;51.880;5.632;2023-07-31T14:37:36;17.90;99.90
63537;DHT22;49686;51.880;5.632;2023-07-31T14:40:06;18.00;99.90
63537;DHT22;49686;51.880;5.632;2023-07-31T14:42:34;17.90;99.90
63537;DHT22;49686;51.880;5.632;2023-07-31T14:45:00;17.90;99.90
63537;DHT22;49686;51.880;5.632;2023-07-31T14:47:27;17.80;99.90
63537;DHT22;49686;51.880;5.632;2023-07-31T14:49:54;17.80;99.90
63537;DHT22;49686;51.880;5.632;2023-07-31T14:52:21;17.80;99.90
63537;DHT22;49686;51.880;5.632;2023-07-31T14:54:48;17.90;99.90
63537;DHT22;49686;51.880;5.632;2023-07-31T14:57:16;17.90;99.90
63537;DHT22;49686;51.880;5.632;2023-07-31T14:59:43;18.00;99.90
63537;DHT22;49686;51.880;5.632;2023-07-31T15:02:09;18.00;99.90
63537;DHT22;49686;51.880;5.632;2023-07-31T15:04:36;18.00;99.90
63537;DHT22;49686;51.880;5.632;2023-07-31T15:07:04;18.00;99.90
63537;DHT22;49686;51.880;5.632;2023-07-31T15:09:31;18.00;99.90
63537;DHT22;49686;51.880;5.632;2023-07-31T15:11:58;18.00;99.90
63537;DHT22;49686;51.880;5.632;2023-07-31T15:14:26;18.00;99.90
63537;DHT22;49686;51.880;5.632;2023-07-31T15:16:53;17.80;99.90
63537;DHT22;49686;51.880;5.632;2023-07-31T15:19:20;17.90;99.90
63537;DHT22;49686;51.880;5.632;2023-07-31T15:21:47;17.80;99.90
63537;DHT22;49686;51.880;5.632;2023-07-31T15:24:13;17.90;99.90
63537;DHT22;49686;51.880;5.632;2023-07-31T15:26:40;17.90;99.90
63537;DHT22;49686;51.880;5.632;2023-07-31T15:29:08;17.80;99.90
63537;DHT22;49686;51.880;5.632;2023-07-31T15:31:36;17.80;99.90
63537;DHT22;49686;51.880;5.632;2023-07-31T15:34:04;17.90;99.90